Navarre, Florida
Current Conditions -  °F | °C
As of 5:36 PM on Sunday 23 Nov 2014 (Local Time) from KQBL Reporting Station
Haze Haze  
Wind Chill: 66°   Ceiling: Unl
Heat Index: 66°   Visibility: 2.7mi
Dew Point: 64°   Wind: 1mph
Humidity: 94%   Direction: 200°SSW
Pressure: 29.74"   Gusts: NA
Location:  30.4°N, 86.86°W
Report Text: KQBL 232236Z AUTO 20001KT 2 3/4SM BR FEW017 SCT021 19/18 A2974 RMK AO2
Loading
Personal Weather Stations






























Interactive Weather Map New forecast layout! Learn more

10-Day Weather Forecast

Advertisements
Track Severe Weather on mobile